sensor_id;sensor_type;location;lat;lon;timestamp;temperature;humidity
46091;DHT22;31826;53.572;10.170;2022-07-29T00:01:55;14.10;99.90
46091;DHT22;31826;53.572;10.170;2022-07-29T00:04:21;14.10;99.90
46091;DHT22;31826;53.572;10.170;2022-07-29T00:06:47;13.90;99.90
46091;DHT22;31826;53.572;10.170;2022-07-29T00:09:13;14.00;99.90
46091;DHT22;31826;53.572;10.170;2022-07-29T00:11:38;14.00;99.90
46091;DHT22;31826;53.572;10.170;2022-07-29T00:14:04;14.00;99.90
46091;DHT22;31826;53.572;10.170;2022-07-29T00:16:30;14.00;99.90
46091;DHT22;31826;53.572;10.170;2022-07-29T00:18:56;14.00;99.90
46091;DHT22;31826;53.572;10.170;2022-07-29T00:21:21;13.90;99.90
46091;DHT22;31826;53.572;10.170;2022-07-29T00:23:47;13.90;99.90
46091;DHT22;31826;53.572;10.170;2022-07-29T00:26:13;13.90;99.90
46091;DHT22;31826;53.572;10.170;2022-07-29T00:28:39;13.90;99.90
46091;DHT22;31826;53.572;10.170;2022-07-29T00:31:04;13.80;99.90
46091;DHT22;31826;53.572;10.170;2022-07-29T00:33:30;13.80;99.90
46091;DHT22;31826;53.572;10.170;2022-07-29T00:35:56;13.80;99.90
46091;DHT22;31826;53.572;10.170;2022-07-29T00:38:22;13.80;99.90
46091;DHT22;31826;53.572;10.170;2022-07-29T00:40:48;13.70;99.90
46091;DHT22;31826;53.572;10.170;2022-07-29T00:43:14;13.70;99.90
46091;DHT22;31826;53.572;10.170;2022-07-29T00:45:43;13.70;99.90
46091;DHT22;31826;53.572;10.170;2022-07-29T00:48:09;13.70;99.90
46091;DHT22;31826;53.572;10.170;2022-07-29T00:50:35;13.70;99.90
46091;DHT22;31826;53.572;10.170;2022-07-29T00:53:03;13.70;99.90
46091;DHT22;31826;53.572;10.170;2022-07-29T00:55:29;13.80;99.90
46091;DHT22;31826;53.572;10.170;2022-07-29T00:57:55;13.80;99.90
46091;DHT22;31826;53.572;10.170;2022-07-29T01:00:23;13.80;99.90
46091;DHT22;31826;53.572;10.170;2022-07-29T01:02:50;13.80;99.90
46091;DHT22;31826;53.572;10.170;2022-07-29T01:05:19;13.80;99.90
46091;DHT22;31826;53.572;10.170;2022-07-29T01:07:46;13.80;99.90
46091;DHT22;31826;53.572;10.170;2022-07-29T01:10:13;13.80;99.90
46091;DHT22;31826;53.572;10.170;2022-07-29T01:12:40;13.70;99.90
46091;DHT22;31826;53.572;10.170;2022-07-29T01:15:09;13.70;99.90
46091;DHT22;31826;53.572;10.170;2022-07-29T01:23:13;13.60;99.90
46091;DHT22;31826;53.572;10.170;2022-07-29T01:34:25;13.40;99.90
46091;DHT22;31826;53.572;10.170;2022-07-29T01:39:36;13.40;99.90
46091;DHT22;31826;53.572;10.170;2022-07-29T01:44:34;13.40;99.90
46091;DHT22;31826;53.572;10.170;2022-07-29T01:47:13;13.50;99.90
46091;DHT22;31826;53.572;10.170;2022-07-29T01:49:46;13.50;99.90
46091;DHT22;31826;53.572;10.170;2022-07-29T01:52:29;13.50;99.90
46091;DHT22;31826;53.572;10.170;2022-07-29T01:54:59;13.60;99.90
46091;DHT22;31826;53.572;10.170;2022-07-29T01:57:29;13.60;99.90
46091;DHT22;31826;53.572;10.170;2022-07-29T01:59:57;13.50;99.90
46091;DHT22;31826;53.572;10.170;2022-07-29T02:02:24;13.60;99.90
46091;DHT22;31826;53.572;10.170;2022-07-29T02:04:52;13.60;99.90
46091;DHT22;31826;53.572;10.170;2022-07-29T02:07:21;13.60;99.90
46091;DHT22;31826;53.572;10.170;2022-07-29T02:09:50;13.60;99.90
46091;DHT22;31826;53.572;10.170;2022-07-29T02:12:18;13.70;99.90
46091;DHT22;31826;53.572;10.170;2022-07-29T02:14:47;13.60;99.90
46091;DHT22;31826;53.572;10.170;2022-07-29T02:17:18;13.60;99.90
46091;DHT22;31826;53.572;10.170;2022-07-29T02:19:47;13.60;99.90
46091;DHT22;31826;53.572;10.170;2022-07-29T02:22:14;13.60;99.90
46091;DHT22;31826;53.572;10.170;2022-07-29T02:24:43;13.70;99.90
46091;DHT22;31826;53.572;10.170;2022-07-29T02:27:10;13.60;99.90
46091;DHT22;31826;53.572;10.170;2022-07-29T02:29:37;13.60;99.90
46091;DHT22;31826;53.572;10.170;2022-07-29T02:32:06;13.50;99.90
46091;DHT22;31826;53.572;10.170;2022-07-29T02:34:34;13.60;99.90
46091;DHT22;31826;53.572;10.170;2022-07-29T02:37:02;13.60;99.90
46091;DHT22;31826;53.572;10.170;2022-07-29T02:39:30;13.50;99.90
46091;DHT22;31826;53.572;10.170;2022-07-29T02:42:03;13.60;99.90
46091;DHT22;31826;53.572;10.170;2022-07-29T02:44:29;13.60;99.90
46091;DHT22;31826;53.572;10.170;2022-07-29T02:49:52;13.60;99.90
46091;DHT22;31826;53.572;10.170;2022-07-29T02:52:39;13.60;99.90
46091;DHT22;31826;53.572;10.170;2022-07-29T02:55:25;13.60;99.90
46091;DHT22;31826;53.572;10.170;2022-07-29T02:58:01;13.60;99.90
46091;DHT22;31826;53.572;10.170;2022-07-29T03:00:29;13.60;99.90
46091;DHT22;31826;53.572;10.170;2022-07-29T03:02:58;13.60;99.90
46091;DHT22;31826;53.572;10.170;2022-07-29T03:05:25;13.50;99.90
46091;DHT22;31826;53.572;10.170;2022-07-29T03:07:55;13.50;99.90
46091;DHT22;31826;53.572;10.170;2022-07-29T03:10:25;13.50;99.90
46091;DHT22;31826;53.572;10.170;2022-07-29T03:12:51;13.50;99.90
46091;DHT22;31826;53.572;10.170;2022-07-29T03:15:18;13.60;99.90
46091;DHT22;31826;53.572;10.170;2022-07-29T03:17:44;13.50;99.90
46091;DHT22;31826;53.572;10.170;2022-07-29T03:20:11;13.40;99.90
46091;DHT22;31826;53.572;10.170;2022-07-29T03:22:44;13.40;99.90
46091;DHT22;31826;53.572;10.170;2022-07-29T03:25:17;13.30;99.90
46091;DHT22;31826;53.572;10.170;2022-07-29T03:27:43;13.30;99.90
46091;DHT22;31826;53.572;10.170;2022-07-29T03:30:10;13.40;99.90
46091;DHT22;31826;53.572;10.170;2022-07-29T03:32:37;13.50;99.90
46091;DHT22;31826;53.572;10.170;2022-07-29T03:35:04;13.50;99.90
46091;DHT22;31826;53.572;10.170;2022-07-29T03:37:30;13.40;99.90
46091;DHT22;31826;53.572;10.170;2022-07-29T03:39:57;13.40;99.90
46091;DHT22;31826;53.572;10.170;2022-07-29T03:42:25;13.40;99.90
46091;DHT22;31826;53.572;10.170;2022-07-29T03:44:52;13.40;99.90
46091;DHT22;31826;53.572;10.170;2022-07-29T03:47:22;13.50;99.90
46091;DHT22;31826;53.572;10.170;2022-07-29T03:49:50;13.50;99.90
46091;DHT22;31826;53.572;10.170;2022-07-29T03:52:18;13.50;99.90
46091;DHT22;31826;53.572;10.170;2022-07-29T03:54:44;13.50;99.90
46091;DHT22;31826;53.572;10.170;2022-07-29T03:57:13;13.50;99.90
46091;DHT22;31826;53.572;10.170;2022-07-29T03:59:40;13.50;99.90
46091;DHT22;31826;53.572;10.170;2022-07-29T04:02:09;13.60;99.90
46091;DHT22;31826;53.572;10.170;2022-07-29T04:04:36;13.50;99.90
46091;DHT22;31826;53.572;10.170;2022-07-29T04:07:03;13.50;99.90
46091;DHT22;31826;53.572;10.170;2022-07-29T04:09:29;13.50;99.90
46091;DHT22;31826;53.572;10.170;2022-07-29T04:11:55;13.50;99.90
46091;DHT22;31826;53.572;10.170;2022-07-29T04:14:20;13.50;99.90
46091;DHT22;31826;53.572;10.170;2022-07-29T04:16:46;13.50;99.90
46091;DHT22;31826;53.572;10.170;2022-07-29T04:19:12;13.60;99.90
46091;DHT22;31826;53.572;10.170;2022-07-29T04:21:41;13.60;99.90
46091;DHT22;31826;53.572;10.170;2022-07-29T04:24:07;13.60;99.90
46091;DHT22;31826;53.572;10.170;2022-07-29T04:26:34;13.50;99.90
46091;DHT22;31826;53.572;10.170;2022-07-29T04:29:00;13.70;99.90
46091;DHT22;31826;53.572;10.170;2022-07-29T04:31:26;13.70;99.90
46091;DHT22;31826;53.572;10.170;2022-07-29T04:33:52;13.80;99.90
46091;DHT22;31826;53.572;10.170;2022-07-29T04:36:18;13.70;99.90
46091;DHT22;31826;53.572;10.170;2022-07-29T04:38:43;13.70;99.90
46091;DHT22;31826;53.572;10.170;2022-07-29T04:41:09;13.70;99.90
46091;DHT22;31826;53.572;10.170;2022-07-29T04:43:35;13.70;99.90
46091;DHT22;31826;53.572;10.170;2022-07-29T04:46:02;13.70;99.90
46091;DHT22;31826;53.572;10.170;2022-07-29T04:48:28;13.80;99.90
46091;DHT22;31826;53.572;10.170;2022-07-29T04:50:55;13.80;99.90
46091;DHT22;31826;53.572;10.170;2022-07-29T04:53:21;13.90;99.90
46091;DHT22;31826;53.572;10.170;2022-07-29T04:55:46;14.00;99.90
46091;DHT22;31826;53.572;10.170;2022-07-29T04:58:12;14.10;99.90
46091;DHT22;31826;53.572;10.170;2022-07-29T05:00:39;14.20;99.90
46091;DHT22;31826;53.572;10.170;2022-07-29T05:03:04;14.20;99.90
46091;DHT22;31826;53.572;10.170;2022-07-29T05:05:30;14.30;99.90
46091;DHT22;31826;53.572;10.170;2022-07-29T05:07:56;14.40;99.90
46091;DHT22;31826;53.572;10.170;2022-07-29T05:10:22;14.40;99.90
46091;DHT22;31826;53.572;10.170;2022-07-29T05:12:48;14.50;99.90
46091;DHT22;31826;53.572;10.170;2022-07-29T05:15:14;14.50;99.90
46091;DHT22;31826;53.572;10.170;2022-07-29T05:17:39;14.50;99.90
46091;DHT22;31826;53.572;10.170;2022-07-29T05:20:06;14.60;99.90
46091;DHT22;31826;53.572;10.170;2022-07-29T05:22:32;14.60;99.90
46091;DHT22;31826;53.572;10.170;2022-07-29T05:24:58;14.70;99.90
46091;DHT22;31826;53.572;10.170;2022-07-29T05:27:24;14.70;99.90
46091;DHT22;31826;53.572;10.170;2022-07-29T05:29:49;14.80;99.90
46091;DHT22;31826;53.572;10.170;2022-07-29T05:32:15;14.80;99.90
46091;DHT22;31826;53.572;10.170;2022-07-29T05:34:41;14.90;99.90
46091;DHT22;31826;53.572;10.170;2022-07-29T05:37:07;15.00;99.90
46091;DHT22;31826;53.572;10.170;2022-07-29T05:39:33;15.10;99.90
46091;DHT22;31826;53.572;10.170;2022-07-29T05:41:58;15.20;99.90
46091;DHT22;31826;53.572;10.170;2022-07-29T05:44:24;15.30;99.90
46091;DHT22;31826;53.572;10.170;2022-07-29T05:46:50;15.30;99.90
46091;DHT22;31826;53.572;10.170;2022-07-29T05:49:16;15.20;99.90
46091;DHT22;31826;53.572;10.170;2022-07-29T05:51:41;15.30;99.90
46091;DHT22;31826;53.572;10.170;2022-07-29T05:54:07;15.30;99.90
46091;DHT22;31826;53.572;10.170;2022-07-29T05:56:33;15.30;99.90
46091;DHT22;31826;53.572;10.170;2022-07-29T05:58:59;15.40;99.90
46091;DHT22;31826;53.572;10.170;2022-07-29T06:01:24;15.40;99.90
46091;DHT22;31826;53.572;10.170;2022-07-29T06:03:50;15.60;99.90
46091;DHT22;31826;53.572;10.170;2022-07-29T06:06:16;15.90;99.90
46091;DHT22;31826;53.572;10.170;2022-07-29T06:08:41;16.00;99.90
46091;DHT22;31826;53.572;10.170;2022-07-29T06:11:07;16.20;99.90
46091;DHT22;31826;53.572;10.170;2022-07-29T06:13:34;16.30;99.90
46091;DHT22;31826;53.572;10.170;2022-07-29T06:16:00;16.30;99.90
46091;DHT22;31826;53.572;10.170;2022-07-29T06:18:25;16.40;99.90
46091;DHT22;31826;53.572;10.170;2022-07-29T06:20:51;16.50;99.90
46091;DHT22;31826;53.572;10.170;2022-07-29T06:23:18;16.60;99.90
46091;DHT22;31826;53.572;10.170;2022-07-29T06:25:44;16.60;99.90
46091;DHT22;31826;53.572;10.170;2022-07-29T06:28:10;16.60;99.90
46091;DHT22;31826;53.572;10.170;2022-07-29T06:30:35;16.70;99.90
46091;DHT22;31826;53.572;10.170;2022-07-29T06:33:01;16.70;99.90
46091;DHT22;31826;53.572;10.170;2022-07-29T06:35:28;16.90;99.90
46091;DHT22;31826;53.572;10.170;2022-07-29T06:37:53;17.00;99.90
46091;DHT22;31826;53.572;10.170;2022-07-29T06:40:19;17.00;99.90
46091;DHT22;31826;53.572;10.170;2022-07-29T06:43:03;16.90;99.90
46091;DHT22;31826;53.572;10.170;2022-07-29T06:45:29;17.00;99.90
46091;DHT22;31826;53.572;10.170;2022-07-29T06:47:55;17.10;99.90
46091;DHT22;31826;53.572;10.170;2022-07-29T06:50:21;17.10;99.90
46091;DHT22;31826;53.572;10.170;2022-07-29T06:52:47;17.10;99.90
46091;DHT22;31826;53.572;10.170;2022-07-29T06:55:13;17.30;99.90
46091;DHT22;31826;53.572;10.170;2022-07-29T06:57:39;17.30;99.90
46091;DHT22;31826;53.572;10.170;2022-07-29T07:00:06;17.50;99.90
46091;DHT22;31826;53.572;10.170;2022-07-29T07:02:32;17.60;99.90
46091;DHT22;31826;53.572;10.170;2022-07-29T07:04:58;17.70;99.90
46091;DHT22;31826;53.572;10.170;2022-07-29T07:07:24;17.60;99.90
46091;DHT22;31826;53.572;10.170;2022-07-29T07:09:50;17.50;99.90
46091;DHT22;31826;53.572;10.170;2022-07-29T07:12:16;17.60;99.90
46091;DHT22;31826;53.572;10.170;2022-07-29T07:14:41;17.70;99.90
46091;DHT22;31826;53.572;10.170;2022-07-29T07:17:07;17.60;99.90
46091;DHT22;31826;53.572;10.170;2022-07-29T07:19:33;17.60;99.90
46091;DHT22;31826;53.572;10.170;2022-07-29T07:21:59;17.50;99.90
46091;DHT22;31826;53.572;10.170;2022-07-29T07:24:25;17.60;99.90
46091;DHT22;31826;53.572;10.170;2022-07-29T07:26:50;17.60;99.90
46091;DHT22;31826;53.572;10.170;2022-07-29T07:29:16;17.60;99.90
46091;DHT22;31826;53.572;10.170;2022-07-29T07:31:42;17.80;99.90
46091;DHT22;31826;53.572;10.170;2022-07-29T07:34:08;17.90;99.90
46091;DHT22;31826;53.572;10.170;2022-07-29T07:36:34;18.00;99.90
46091;DHT22;31826;53.572;10.170;2022-07-29T07:39:00;18.00;99.90
46091;DHT22;31826;53.572;10.170;2022-07-29T07:41:26;18.10;99.90
46091;DHT22;31826;53.572;10.170;2022-07-29T07:43:52;18.20;99.90
46091;DHT22;31826;53.572;10.170;2022-07-29T07:46:17;18.40;99.90
46091;DHT22;31826;53.572;10.170;2022-07-29T07:48:43;18.30;99.90
46091;DHT22;31826;53.572;10.170;2022-07-29T07:51:09;18.40;99.90
46091;DHT22;31826;53.572;10.170;2022-07-29T07:53:35;18.50;99.90
46091;DHT22;31826;53.572;10.170;2022-07-29T07:56:01;18.60;99.90
46091;DHT22;31826;53.572;10.170;2022-07-29T07:58:26;18.60;99.90
46091;DHT22;31826;53.572;10.170;2022-07-29T08:00:52;18.70;99.90
46091;DHT22;31826;53.572;10.170;2022-07-29T08:03:18;18.70;99.90
46091;DHT22;31826;53.572;10.170;2022-07-29T08:05:44;18.90;99.90
46091;DHT22;31826;53.572;10.170;2022-07-29T08:08:09;19.00;99.90
46091;DHT22;31826;53.572;10.170;2022-07-29T08:10:35;19.10;99.90
46091;DHT22;31826;53.572;10.170;2022-07-29T08:13:23;19.30;99.90
46091;DHT22;31826;53.572;10.170;2022-07-29T08:15:49;19.40;99.90
46091;DHT22;31826;53.572;10.170;2022-07-29T08:18:23;19.70;99.90
46091;DHT22;31826;53.572;10.170;2022-07-29T08:20:50;19.90;99.90
46091;DHT22;31826;53.572;10.170;2022-07-29T08:23:16;20.20;99.30
46091;DHT22;31826;53.572;10.170;2022-07-29T08:25:41;20.50;98.50
46091;DHT22;31826;53.572;10.170;2022-07-29T08:28:07;20.80;99.30
46091;DHT22;31826;53.572;10.170;2022-07-29T08:30:34;21.10;98.80
46091;DHT22;31826;53.572;10.170;2022-07-29T08:33:00;21.10;97.00
46091;DHT22;31826;53.572;10.170;2022-07-29T08:35:26;21.20;97.60
46091;DHT22;31826;53.572;10.170;2022-07-29T08:37:53;21.40;98.00
46091;DHT22;31826;53.572;10.170;2022-07-29T08:40:19;21.50;96.60
46091;DHT22;31826;53.572;10.170;2022-07-29T08:42:46;21.60;95.90
46091;DHT22;31826;53.572;10.170;2022-07-29T08:45:12;21.70;96.10
46091;DHT22;31826;53.572;10.170;2022-07-29T08:47:43;21.70;95.80
46091;DHT22;31826;53.572;10.170;2022-07-29T08:50:10;21.60;95.50
46091;DHT22;31826;53.572;10.170;2022-07-29T08:52:39;21.70;95.60
46091;DHT22;31826;53.572;10.170;2022-07-29T08:55:09;21.80;95.10
46091;DHT22;31826;53.572;10.170;2022-07-29T08:57:35;21.80;94.50
46091;DHT22;31826;53.572;10.170;2022-07-29T09:00:05;22.00;94.50
46091;DHT22;31826;53.572;10.170;2022-07-29T09:02:37;22.20;94.80
46091;DHT22;31826;53.572;10.170;2022-07-29T09:05:04;22.60;94.80
46091;DHT22;31826;53.572;10.170;2022-07-29T09:07:31;22.60;93.20
46091;DHT22;31826;53.572;10.170;2022-07-29T09:09:58;22.60;93.70
46091;DHT22;31826;53.572;10.170;2022-07-29T09:12:24;23.00;92.90
46091;DHT22;31826;53.572;10.170;2022-07-29T09:14:50;23.40;91.70
46091;DHT22;31826;53.572;10.170;2022-07-29T09:17:16;23.50;90.80
46091;DHT22;31826;53.572;10.170;2022-07-29T09:19:43;23.60;90.90
46091;DHT22;31826;53.572;10.170;2022-07-29T09:22:09;23.90;90.30
46091;DHT22;31826;53.572;10.170;2022-07-29T09:24:44;24.10;90.40
46091;DHT22;31826;53.572;10.170;2022-07-29T09:29:37;24.20;88.50
46091;DHT22;31826;53.572;10.170;2022-07-29T09:32:08;24.20;85.00
46091;DHT22;31826;53.572;10.170;2022-07-29T09:34:34;24.40;87.80
46091;DHT22;31826;53.572;10.170;2022-07-29T09:37:00;24.60;87.10
46091;DHT22;31826;53.572;10.170;2022-07-29T09:39:37;24.80;87.20
46091;DHT22;31826;53.572;10.170;2022-07-29T09:42:06;24.90;86.60
46091;DHT22;31826;53.572;10.170;2022-07-29T09:44:48;24.60;83.80
46091;DHT22;31826;53.572;10.170;2022-07-29T09:47:18;24.10;83.00
46091;DHT22;31826;53.572;10.170;2022-07-29T09:49:55;23.80;85.60
46091;DHT22;31826;53.572;10.170;2022-07-29T09:52:24;23.70;85.90
46091;DHT22;31826;53.572;10.170;2022-07-29T09:54:50;23.50;85.60
46091;DHT22;31826;53.572;10.170;2022-07-29T09:57:26;23.20;86.70
46091;DHT22;31826;53.572;10.170;2022-07-29T10:02:38;23.20;87.50
46091;DHT22;31826;53.572;10.170;2022-07-29T10:05:26;23.30;87.30
46091;DHT22;31826;53.572;10.170;2022-07-29T10:07:57;23.40;87.60
46091;DHT22;31826;53.572;10.170;2022-07-29T10:10:29;23.50;87.70
46091;DHT22;31826;53.572;10.170;2022-07-29T10:15:34;23.60;85.80
46091;DHT22;31826;53.572;10.170;2022-07-29T10:18:04;23.70;87.50
46091;DHT22;31826;53.572;10.170;2022-07-29T10:20:30;23.70;84.80
46091;DHT22;31826;53.572;10.170;2022-07-29T10:22:56;23.80;86.20
46091;DHT22;31826;53.572;10.170;2022-07-29T10:25:23;23.70;85.80
46091;DHT22;31826;53.572;10.170;2022-07-29T10:27:50;23.70;85.80
46091;DHT22;31826;53.572;10.170;2022-07-29T10:30:19;23.60;86.70
46091;DHT22;31826;53.572;10.170;2022-07-29T10:35:49;23.70;84.90
46091;DHT22;31826;53.572;10.170;2022-07-29T10:44:08;23.60;83.40
46091;DHT22;31826;53.572;10.170;2022-07-29T10:46:36;23.60;84.10
46091;DHT22;31826;53.572;10.170;2022-07-29T10:49:05;23.80;83.80
46091;DHT22;31826;53.572;10.170;2022-07-29T10:59:50;23.50;81.00
46091;DHT22;31826;53.572;10.170;2022-07-29T11:07:31;23.60;81.90
46091;DHT22;31826;53.572;10.170;2022-07-29T11:15:10;24.30;80.20
46091;DHT22;31826;53.572;10.170;2022-07-29T11:20:52;24.80;82.30
46091;DHT22;31826;53.572;10.170;2022-07-29T11:23:29;24.60;78.50
46091;DHT22;31826;53.572;10.170;2022-07-29T11:26:14;24.60;77.80
46091;DHT22;31826;53.572;10.170;2022-07-29T11:31:31;25.00;76.50
46091;DHT22;31826;53.572;10.170;2022-07-29T11:34:28;25.30;78.60
46091;DHT22;31826;53.572;10.170;2022-07-29T11:39:45;26.40;75.00
46091;DHT22;31826;53.572;10.170;2022-07-29T11:44:59;26.80;73.30
46091;DHT22;31826;53.572;10.170;2022-07-29T11:47:27;26.80;71.70
46091;DHT22;31826;53.572;10.170;2022-07-29T11:49:55;26.70;72.90
46091;DHT22;31826;53.572;10.170;2022-07-29T11:52:21;26.70;74.30
46091;DHT22;31826;53.572;10.170;2022-07-29T11:54:48;27.00;74.40
46091;DHT22;31826;53.572;10.170;2022-07-29T11:57:18;27.00;71.00
46091;DHT22;31826;53.572;10.170;2022-07-29T11:59:45;27.20;70.60
46091;DHT22;31826;53.572;10.170;2022-07-29T12:02:12;27.00;70.60
46091;DHT22;31826;53.572;10.170;2022-07-29T12:04:56;27.30;73.00
46091;DHT22;31826;53.572;10.170;2022-07-29T12:07:28;27.50;70.60
46091;DHT22;31826;53.572;10.170;2022-07-29T12:09:54;27.40;70.10
46091;DHT22;31826;53.572;10.170;2022-07-29T12:12:21;27.40;69.80
46091;DHT22;31826;53.572;10.170;2022-07-29T12:14:47;27.60;68.20
46091;DHT22;31826;53.572;10.170;2022-07-29T12:17:28;27.70;68.60
46091;DHT22;31826;53.572;10.170;2022-07-29T12:19:55;27.70;68.00
46091;DHT22;31826;53.572;10.170;2022-07-29T12:22:32;28.00;67.60
46091;DHT22;31826;53.572;10.170;2022-07-29T12:25:03;28.10;61.30
46091;DHT22;31826;53.572;10.170;2022-07-29T12:27:29;27.50;64.00
46091;DHT22;31826;53.572;10.170;2022-07-29T12:30:00;27.50;66.60
46091;DHT22;31826;53.572;10.170;2022-07-29T12:35:06;27.20;64.80
46091;DHT22;31826;53.572;10.170;2022-07-29T12:37:38;27.40;66.30
46091;DHT22;31826;53.572;10.170;2022-07-29T12:40:05;27.50;63.10
46091;DHT22;31826;53.572;10.170;2022-07-29T12:42:33;27.40;63.50
46091;DHT22;31826;53.572;10.170;2022-07-29T12:44:59;27.70;62.50
46091;DHT22;31826;53.572;10.170;2022-07-29T12:47:25;28.10;61.40
46091;DHT22;31826;53.572;10.170;2022-07-29T12:50:10;28.40;60.40
46091;DHT22;31826;53.572;10.170;2022-07-29T12:52:37;28.50;59.00
46091;DHT22;31826;53.572;10.170;2022-07-29T12:55:03;28.60;59.00
46091;DHT22;31826;53.572;10.170;2022-07-29T12:57:29;28.30;60.50
46091;DHT22;31826;53.572;10.170;2022-07-29T13:00:14;28.40;61.40
46091;DHT22;31826;53.572;10.170;2022-07-29T13:02:42;28.50;59.90
46091;DHT22;31826;53.572;10.170;2022-07-29T13:05:09;28.40;59.80
46091;DHT22;31826;53.572;10.170;2022-07-29T13:07:36;28.70;60.30
46091;DHT22;31826;53.572;10.170;2022-07-29T13:10:16;28.60;58.60
46091;DHT22;31826;53.572;10.170;2022-07-29T13:13:02;28.30;59.20
46091;DHT22;31826;53.572;10.170;2022-07-29T13:15:28;27.90;60.20
46091;DHT22;31826;53.572;10.170;2022-07-29T13:17:53;27.70;60.10
46091;DHT22;31826;53.572;10.170;2022-07-29T13:20:24;27.90;60.70
46091;DHT22;31826;53.572;10.170;2022-07-29T13:22:50;28.30;63.90
46091;DHT22;31826;53.572;10.170;2022-07-29T13:25:24;28.80;66.20
46091;DHT22;31826;53.572;10.170;2022-07-29T13:27:50;29.30;67.60
46091;DHT22;31826;53.572;10.170;2022-07-29T13:30:16;29.20;67.80
46091;DHT22;31826;53.572;10.170;2022-07-29T13:32:42;29.10;66.70
46091;DHT22;31826;53.572;10.170;2022-07-29T13:35:08;29.20;67.40
46091;DHT22;31826;53.572;10.170;2022-07-29T13:37:35;28.90;69.20
46091;DHT22;31826;53.572;10.170;2022-07-29T13:40:04;28.90;70.30
46091;DHT22;31826;53.572;10.170;2022-07-29T13:42:31;29.10;68.60
46091;DHT22;31826;53.572;10.170;2022-07-29T13:44:58;29.00;70.50
46091;DHT22;31826;53.572;10.170;2022-07-29T13:47:24;29.00;69.10
46091;DHT22;31826;53.572;10.170;2022-07-29T13:49:50;28.90;70.00
46091;DHT22;31826;53.572;10.170;2022-07-29T13:52:16;29.00;70.20
46091;DHT22;31826;53.572;10.170;2022-07-29T13:54:42;28.80;70.70
46091;DHT22;31826;53.572;10.170;2022-07-29T13:57:09;28.20;71.00
46091;DHT22;31826;53.572;10.170;2022-07-29T13:59:36;27.70;71.10
46091;DHT22;31826;53.572;10.170;2022-07-29T14:02:02;27.30;72.80
46091;DHT22;31826;53.572;10.170;2022-07-29T14:04:28;27.20;73.90
46091;DHT22;31826;53.572;10.170;2022-07-29T14:06:54;27.20;74.40
46091;DHT22;31826;53.572;10.170;2022-07-29T14:09:19;27.10;73.50
46091;DHT22;31826;53.572;10.170;2022-07-29T14:11:45;26.90;73.80
46091;DHT22;31826;53.572;10.170;2022-07-29T14:14:11;26.70;75.00
46091;DHT22;31826;53.572;10.170;2022-07-29T14:16:37;26.50;74.60
46091;DHT22;31826;53.572;10.170;2022-07-29T14:19:03;26.50;75.70
46091;DHT22;31826;53.572;10.170;2022-07-29T14:21:29;26.30;75.40
46091;DHT22;31826;53.572;10.170;2022-07-29T14:23:54;26.40;76.60
46091;DHT22;31826;53.572;10.170;2022-07-29T14:26:21;26.70;76.50
46091;DHT22;31826;53.572;10.170;2022-07-29T14:28:48;27.00;75.50
46091;DHT22;31826;53.572;10.170;2022-07-29T14:31:14;27.10;75.80
46091;DHT22;31826;53.572;10.170;2022-07-29T14:33:40;27.00;75.80
46091;DHT22;31826;53.572;10.170;2022-07-29T14:36:06;26.80;74.90
46091;DHT22;31826;53.572;10.170;2022-07-29T14:38:32;26.50;75.20
46091;DHT22;31826;53.572;10.170;2022-07-29T14:40:57;26.30;76.00
46091;DHT22;31826;53.572;10.170;2022-07-29T14:43:23;26.00;76.30
46091;DHT22;31826;53.572;10.170;2022-07-29T14:45:49;25.80;77.30
46091;DHT22;31826;53.572;10.170;2022-07-29T14:48:15;25.50;77.60
46091;DHT22;31826;53.572;10.170;2022-07-29T14:50:40;25.40;78.30
46091;DHT22;31826;53.572;10.170;2022-07-29T14:53:06;25.30;78.90
46091;DHT22;31826;53.572;10.170;2022-07-29T14:55:32;25.40;79.60
46091;DHT22;31826;53.572;10.170;2022-07-29T14:57:58;25.70;79.70
46091;DHT22;31826;53.572;10.170;2022-07-29T15:00:25;26.20;78.20
46091;DHT22;31826;53.572;10.170;2022-07-29T15:02:51;26.50;77.30
46091;DHT22;31826;53.572;10.170;2022-07-29T15:05:16;26.80;75.90
46091;DHT22;31826;53.572;10.170;2022-07-29T15:07:42;26.70;77.00
46091;DHT22;31826;53.572;10.170;2022-07-29T15:10:08;26.90;76.70
46091;DHT22;31826;53.572;10.170;2022-07-29T15:12:34;27.00;76.40
46091;DHT22;31826;53.572;10.170;2022-07-29T15:15:00;27.10;77.00
46091;DHT22;31826;53.572;10.170;2022-07-29T15:17:26;27.10;76.50
46091;DHT22;31826;53.572;10.170;2022-07-29T15:19:51;27.00;75.40
46091;DHT22;31826;53.572;10.170;2022-07-29T15:22:17;26.80;76.30
46091;DHT22;31826;53.572;10.170;2022-07-29T15:24:43;26.90;76.00
46091;DHT22;31826;53.572;10.170;2022-07-29T15:27:10;26.80;75.50
46091;DHT22;31826;53.572;10.170;2022-07-29T15:29:42;26.70;74.80
46091;DHT22;31826;53.572;10.170;2022-07-29T15:32:09;26.60;76.20
46091;DHT22;31826;53.572;10.170;2022-07-29T15:34:34;26.50;77.70
46091;DHT22;31826;53.572;10.170;2022-07-29T15:37:00;26.40;77.10
46091;DHT22;31826;53.572;10.170;2022-07-29T15:39:26;26.20;78.90
46091;DHT22;31826;53.572;10.170;2022-07-29T15:41:53;26.20;79.20
46091;DHT22;31826;53.572;10.170;2022-07-29T15:44:19;26.40;78.40
46091;DHT22;31826;53.572;10.170;2022-07-29T15:46:46;26.40;76.70
46091;DHT22;31826;53.572;10.170;2022-07-29T15:49:40;26.40;77.40
46091;DHT22;31826;53.572;10.170;2022-07-29T15:52:08;26.40;78.00
46091;DHT22;31826;53.572;10.170;2022-07-29T15:54:38;26.50;78.70
46091;DHT22;31826;53.572;10.170;2022-07-29T15:57:06;26.60;77.40
46091;DHT22;31826;53.572;10.170;2022-07-29T15:59:33;26.60;77.10
46091;DHT22;31826;53.572;10.170;2022-07-29T16:01:59;26.70;77.30
46091;DHT22;31826;53.572;10.170;2022-07-29T16:04:25;26.70;78.20
46091;DHT22;31826;53.572;10.170;2022-07-29T16:06:52;26.90;78.20
46091;DHT22;31826;53.572;10.170;2022-07-29T16:09:18;27.10;77.80
46091;DHT22;31826;53.572;10.170;2022-07-29T16:11:45;27.10;75.80
46091;DHT22;31826;53.572;10.170;2022-07-29T16:14:12;27.20;76.80
46091;DHT22;31826;53.572;10.170;2022-07-29T16:16:38;27.20;76.00
46091;DHT22;31826;53.572;10.170;2022-07-29T16:19:04;27.10;76.80
46091;DHT22;31826;53.572;10.170;2022-07-29T16:21:30;27.20;77.60
46091;DHT22;31826;53.572;10.170;2022-07-29T16:23:58;27.00;77.30
46091;DHT22;31826;53.572;10.170;2022-07-29T16:26:25;26.70;77.70
46091;DHT22;31826;53.572;10.170;2022-07-29T16:28:51;26.40;78.00
46091;DHT22;31826;53.572;10.170;2022-07-29T16:31:16;26.10;80.10